Meteo Giornale » Osservazioni meteo Italia » Torino-Caselle

ore: 20:50 - Osservazioni Meteo Torino-Caselle
Lat. 45° 13' N Lon. 7° 39' E Alt. 301 metri s.l.m.

sereno Europe/Rome

8 °C

Sereno

Temp. 24 Ore

2 °C

16 °C

Nord

5.5 Km/h

Dew point -1 °C

Umidità 52 %

Visibilità  10 Km

Il sole sorge alle ore 07:51

Il sole tramonta alle ore 17:33

Data e Ora Cielo e Fenomeni T °C DP °C Um. % Pres. hPa Vis. km Vento km/h
Oggi h: 20:50 sereno Sereno 8 -1 52 1014 10 N 5.5
Oggi h: 20:20 sereno Sereno 7 -1 56 1014 10 N 11.1
Oggi h: 19:50 sereno Sereno 8 -3 45 1014 10 N 7.4
Oggi h: 19:20 sereno Sereno 8 -4 42 1013 10 N 3.7
Oggi h: 18:50 sereno Sereno 12 -5 30 1013 10 O/NO 13
Oggi h: 18:20 sereno Sereno 13 -5 28 1012 10 NO 14.8
Oggi h: 17:50 sereno Sereno 13 -5 28 1012 10 O/NO 20.3
Oggi h: 17:20 sereno Sereno 14 -6 24 1011 10 O/NO 25.9
Oggi h: 16:50 sereno Sereno 15 -6 22 1011 10 NO 27.8
Oggi h: 16:20 sereno Sereno 15 -6 22 1011 10 NO 31.5
Oggi h: 15:50 sereno Sereno 16 -7 19 1010 10 N/NO 25.9
Oggi h: 15:20 sereno Sereno 16 -6 21 1010 10 N/NO 24
Oggi h: 14:50 sereno Sereno 16 -5 23 1010 10 NO 24
Oggi h: 14:20 sereno Sereno 16 -5 23 1009 10 NO 29.6
Oggi h: 13:50 sereno Sereno 16 -4 24 1010 10 NO 25.9
Oggi h: 13:20 sereno Sereno 16 -4 24 1010 10 NO 24
Oggi h: 12:50 sereno Sereno 12 2 50 1010 10 E/NE 7.4
Oggi h: 12:20 sereno Sereno 11 2 53 1010 10 E 11.1
Oggi h: 11:50 sereno Sereno 10 2 57 1011 10 E/NE 11.1
Oggi h: 11:20 sereno Sereno 10 1 53 1011 10 E 7.4
Oggi h: 10:50 sereno Sereno 9 3 66 1010 8 E/NE 11.1
Oggi h: 10:20 sereno Sereno 7 4 81 1010 8 N 5.5
Oggi h: 09:50 sereno Sereno 6 2 75 1010 7 N 5.5
Oggi h: 09:20 sereno Sereno 4 2 86 1009 7 S/SO 7.4
Oggi h: 08:50 sereno Sereno 3 0 80 1009 8 N 9.3
Oggi h: 08:20 sereno Sereno 3 0 80 1009 6 O/NO 11.1
Oggi h: 07:50 sereno Sereno 3 0 80 1008 6 N 5.5
Oggi h: 07:20 sereno Sereno 3 1 86 1008 6 O 7.4
Oggi h: 06:50 sereno Sereno 4 2 86 1008 6 N 9.3
Oggi h: 06:20 foschia Foschia 2 2 100 1007 3 N 1.8
Oggi h: 05:50 foschia Foschia 2 2 100 1007 4 N 3.7
Oggi h: 05:20 foschia Foschia 3 2 93 1008 3 N 5.5
Oggi h: 04:50 foschia Foschia 2 2 100 1007 4 S/SO 7.4
Oggi h: 04:20 foschia Foschia 2 1 93 1007 4 N 5.5
Oggi h: 03:50 foschia Foschia 2 -1 80 1007 4 N 9.3
Oggi h: 03:20 foschia Foschia 2 1 93 1007 4 N 1.8
Oggi h: 02:50 foschia Foschia 4 1 80 1007 4 N 5.5
Oggi h: 02:20 foschia Foschia 3 2 93 1007 4 N 5.5
Oggi h: 01:50 foschia Foschia 5 2 80 1007 4 N 3.7
Oggi h: 01:20 foschia Foschia 6 3 81 1007 5 O/SO 9.3
Oggi h: 00:20 foschia Foschia 6 4 86 1007 4 N 5.5
Ieri h: 23:50 foschia Foschia 6 3 81 1007 4 SO 7.4
Ieri h: 23:20 nuvoloso Nuvoloso 5 4 93 1007 4 N 1.8
Ieri h: 22:50 poco_nuvoloso Poco Nuvoloso 5 3 86 1008 4 N 5.5
Ieri h: 22:20 nuvoloso Nuvoloso 4 4 100 1008 6 N/NE 9.3
Ieri h: 21:50 foschia Foschia 5 5 100 1008 5 N 5.5
Ieri h: 21:20 foschia Foschia 5 5 100 1008 4 N 5.5
Ieri h: 20:50 foschia Foschia 5 4 93 1008 4 E/NE 7.4